Gore, Oklahoma
Current Conditions -  °F | °C
As of 7:53 AM on Thursday 18 Dec 2014 (Local Time) from KMKO Reporting Station
Haze Haze  
Wind Chill: 32°   Ceiling: 400
Heat Index: 37°   Visibility: 3mi
Dew Point: 35°   Wind: 7mph
Humidity: 93%   Direction: 140°SE
Pressure: 30.2"   Gusts: NA
Location:  35.53°N, 95.12°W
Report Text: KMKO 181353Z AUTO 14006KT 3SM BR OVC004 03/02 A3020 RMK AO2 SLP229 T00280017
Loading
Personal Weather Stations






























Interactive Weather Map New forecast layout! Learn more

10-Day Weather Forecast

Advertisements
Track Severe Weather on mobile